createdAt,value
2022-08-30T00:00:24.677Z,101536.09
2022-08-30T00:02:27.586Z,101544.16
2022-08-30T00:04:29.221Z,101546.84
2022-08-30T00:06:30.937Z,101539.19
2022-08-30T00:08:32.558Z,101538.97
2022-08-30T00:10:34.605Z,101539.41
2022-08-30T00:12:36.502Z,101537.38
2022-08-30T00:14:38.241Z,101555.94
2022-08-30T00:16:39.795Z,101540.56
2022-08-30T00:18:43.918Z,101548.81
2022-08-30T00:20:47.098Z,101561.31
2022-08-30T00:22:48.807Z,101550.34
2022-08-30T00:24:50.573Z,101550.56
2022-08-30T00:26:52.079Z,101550.72
2022-08-30T00:28:53.612Z,101552.75
2022-08-30T00:30:55.277Z,101560.16
2022-08-30T00:32:56.934Z,101560.16
2022-08-30T00:35:00.088Z,101561.25
2022-08-30T00:37:01.843Z,101564.03
2022-08-30T00:39:03.652Z,101560.38
2022-08-30T00:41:05.428Z,101565.94
2022-08-30T00:43:14.084Z,101557.13
2022-08-30T00:45:31.353Z,101559.25
2022-08-30T00:47:32.890Z,101556.38
2022-08-30T00:49:36.278Z,101548.97
2022-08-30T00:51:40.777Z,101554.44
2022-08-30T00:53:46.313Z,101555.75
2022-08-30T00:55:48.865Z,101549.81
2022-08-30T00:57:53.627Z,101557.78
2022-08-30T00:59:55.123Z,101557.13
2022-08-30T01:01:56.800Z,101559.25
2022-08-30T01:03:59.302Z,101558.59
2022-08-30T01:06:02.446Z,101562.59
2022-08-30T01:08:05.909Z,101566.00
2022-08-30T01:10:09.821Z,101561.53
2022-08-30T01:12:11.728Z,101568.69
2022-08-30T01:14:14.154Z,101572.50
2022-08-30T01:16:16.227Z,101570.00
2022-08-30T01:18:18.792Z,101562.72
2022-08-30T01:20:28.289Z,101577.22
2022-08-30T01:22:34.587Z,101568.28
2022-08-30T01:24:37.664Z,101565.41
2022-08-30T01:26:39.204Z,101565.41
2022-08-30T01:28:41.510Z,101572.69
2022-08-30T01:30:43.176Z,101570.97
2022-08-30T01:32:46.875Z,101568.59
2022-08-30T01:34:48.660Z,101569.25
2022-08-30T01:36:50.240Z,101570.22
2022-08-30T01:38:53.967Z,101562.34
2022-08-30T01:40:58.980Z,101567.53
2022-08-30T01:43:00.557Z,101568.84
2022-08-30T01:45:03.411Z,101572.50
2022-08-30T01:47:05.081Z,101565.03
2022-08-30T01:49:10.591Z,101570.56
2022-08-30T01:51:13.272Z,101574.06
2022-08-30T01:53:15.313Z,101574.31
2022-08-30T01:55:16.912Z,101570.00
2022-08-30T01:57:22.749Z,101563.88
2022-08-30T01:59:24.340Z,101569.03
2022-08-30T02:01:28.868Z,101577.66
2022-08-30T02:03:34.054Z,101565.03
2022-08-30T02:05:36.007Z,101562.34
2022-08-30T02:07:37.652Z,101563.19
2022-08-30T02:09:39.324Z,101562.25
2022-08-30T02:11:40.889Z,101567.72
2022-08-30T02:13:45.321Z,101554.94
2022-08-30T02:15:46.837Z,101558.69
2022-08-30T02:17:48.522Z,101553.13
2022-08-30T02:19:50.027Z,101557.84
2022-08-30T02:21:51.538Z,101557.84
2022-08-30T02:23:53.669Z,101558.69
2022-08-30T02:25:55.224Z,101553.97
2022-08-30T02:27:56.742Z,101558.50
2022-08-30T02:29:59.652Z,101548.59
2022-08-30T02:32:01.200Z,101554.19
2022-08-30T02:34:03.102Z,101549.00
2022-08-30T02:36:06.247Z,101550.06
2022-08-30T02:38:08.179Z,101552.84
2022-08-30T02:40:11.133Z,101552.84
2022-08-30T02:42:13.583Z,101550.47
2022-08-30T02:44:15.190Z,101554.13
2022-08-30T02:46:18.628Z,101562.06
2022-08-30T02:48:20.943Z,101555.53
2022-08-30T02:50:22.518Z,101559.00
2022-08-30T02:52:27.741Z,101556.41
2022-08-30T02:54:29.653Z,101556.00
2022-08-30T02:56:31.166Z,101548.91
2022-08-30T02:58:32.634Z,101548.91
2022-08-30T03:00:34.437Z,101551.78
2022-08-30T03:02:37.326Z,101554.19
2022-08-30T03:04:39.205Z,101559.66
2022-08-30T03:06:40.991Z,101548.09
2022-08-30T03:08:42.530Z,101548.03
2022-08-30T03:10:44.115Z,101551.00
2022-08-30T03:12:45.681Z,101557.13
2022-08-30T03:14:47.216Z,101553.69
2022-08-30T03:16:48.774Z,101554.28
2022-08-30T03:18:51.850Z,101553.41
2022-08-30T03:20:54.560Z,101563.56
2022-08-30T03:22:56.274Z,101556.38
2022-08-30T03:24:57.892Z,101548.81
2022-08-30T03:26:59.376Z,101560.78
2022-08-30T03:29:00.896Z,101558.28
2022-08-30T03:31:02.393Z,101558.28
2022-08-30T03:33:03.999Z,101561.75
2022-08-30T03:35:10.541Z,101558.28
2022-08-30T03:37:12.373Z,101564.44
2022-08-30T03:39:14.003Z,101562.34
2022-08-30T03:41:15.611Z,101569.03
2022-08-30T03:43:17.367Z,101556.66
2022-08-30T03:45:19.083Z,101560.88
2022-08-30T03:47:20.619Z,101564.16
2022-08-30T03:49:22.891Z,101562.75
2022-08-30T03:51:26.125Z,101570.03
2022-08-30T03:53:27.738Z,101571.97
2022-08-30T03:55:30.218Z,101574.84
2022-08-30T03:57:31.863Z,101580.31
2022-08-30T03:59:33.512Z,101573.88
2022-08-30T04:01:35.083Z,101575.81
2022-08-30T04:03:36.730Z,101580.22
2022-08-30T04:05:38.238Z,101581.38
2022-08-30T04:07:41.165Z,101587.81
2022-08-30T04:09:42.686Z,101580.59
2022-08-30T04:11:44.220Z,101578.13
2022-08-30T04:13:45.793Z,101579.84
2022-08-30T04:15:47.429Z,101583.28
2022-08-30T04:17:49.058Z,101585.03
2022-08-30T04:19:50.623Z,101580.81
2022-08-30T04:21:52.149Z,101594.22
2022-08-30T04:23:55.262Z,101587.81
2022-08-30T04:25:56.933Z,101585.03
2022-08-30T04:27:58.422Z,101590.69
2022-08-30T04:30:00.363Z,101595.75
2022-08-30T04:32:02.206Z,101594.91
2022-08-30T04:34:03.782Z,101588.47
2022-08-30T04:36:07.620Z,101592.88
2022-08-30T04:38:09.815Z,101593.66
2022-08-30T04:40:12.918Z,101574.84
2022-08-30T04:42:14.574Z,101592.13
2022-08-30T04:44:19.678Z,101592.78
2022-08-30T04:46:21.407Z,101601.63
2022-08-30T04:48:22.962Z,101602.47
2022-08-30T04:50:24.495Z,101601.41
2022-08-30T04:52:26.494Z,101600.34
2022-08-30T04:54:28.167Z,101593.63
2022-08-30T04:56:31.273Z,101605.41
2022-08-30T04:58:33.459Z,101596.97
2022-08-30T05:00:34.986Z,101604.38
2022-08-30T05:02:36.909Z,101603.03
2022-08-30T05:04:38.456Z,101605.91
2022-08-30T05:06:40.082Z,101599.38
2022-08-30T05:08:41.660Z,101605.63
2022-08-30T05:10:50.832Z,101601.06
2022-08-30T05:12:53.784Z,101609.31
2022-08-30T05:14:55.339Z,101607.28
2022-08-30T05:16:56.839Z,101609.94
2022-08-30T05:18:58.368Z,101605.50
2022-08-30T05:21:04.452Z,101618.75
2022-08-30T05:23:07.751Z,101614.44
2022-08-30T05:25:09.370Z,101624.50
2022-08-30T05:27:16.228Z,101624.28
2022-08-30T05:29:19.046Z,101626.41
2022-08-30T05:31:22.980Z,101624.34
2022-08-30T05:33:24.619Z,101622.91
2022-08-30T05:35:26.282Z,101617.13
2022-08-30T05:37:27.804Z,101620.38
2022-08-30T05:39:29.466Z,101624.38
2022-08-30T05:41:50.950Z,101614.44
2022-08-30T05:43:53.570Z,101629.81
2022-08-30T05:45:59.957Z,101632.03
2022-08-30T05:48:01.436Z,101615.84
2022-08-30T05:50:04.363Z,101623.00
2022-08-30T05:52:05.988Z,101618.84
2022-08-30T05:54:07.693Z,101625.22
2022-08-30T05:56:17.479Z,101627.19
2022-08-30T05:58:19.169Z,101638.84
2022-08-30T06:00:20.995Z,101634.78
2022-08-30T06:02:23.881Z,101635.19
2022-08-30T06:04:26.180Z,101629.56
2022-08-30T06:06:28.384Z,101628.69
2022-08-30T06:08:29.951Z,101626.34
2022-08-30T06:10:31.509Z,101635.53
2022-08-30T06:12:33.031Z,101633.16
2022-08-30T06:14:34.551Z,101626.28
2022-08-30T06:16:38.352Z,101636.63
2022-08-30T06:18:41.278Z,101633.16
2022-08-30T06:20:44.416Z,101627.47
2022-08-30T06:22:46.208Z,101636.09
2022-08-30T06:24:57.407Z,101631.13
2022-08-30T06:26:59.416Z,101621.19
2022-08-30T06:29:00.962Z,101632.41
2022-08-30T06:31:06.071Z,101628.53
2022-08-30T06:33:07.618Z,101634.13
2022-08-30T06:35:11.138Z,101634.81
2022-08-30T06:37:12.678Z,101646.19
2022-08-30T06:39:30.818Z,101643.81
2022-08-30T06:41:34.755Z,101642.09
2022-08-30T06:43:36.716Z,101647.25
2022-08-30T06:45:38.247Z,101645.13
2022-08-30T06:47:40.035Z,101649.81
2022-08-30T06:49:41.550Z,101641.09
2022-08-30T06:51:44.400Z,101640.75
2022-08-30T06:53:45.936Z,101638.84
2022-08-30T06:55:55.443Z,101642.06
2022-08-30T06:57:56.950Z,101648.06
2022-08-30T06:59:58.909Z,101646.09
2022-08-30T07:02:00.496Z,101650.59
2022-08-30T07:04:02.184Z,101646.44
2022-08-30T07:06:04.645Z,101647.13
2022-08-30T07:08:07.534Z,101648.69
2022-08-30T07:10:09.979Z,101644.94
2022-08-30T07:12:12.454Z,101635.66
2022-08-30T07:14:13.961Z,101637.25
2022-08-30T07:16:15.530Z,101642.66
2022-08-30T07:18:17.973Z,101644.38
2022-08-30T07:20:19.557Z,101650.81
2022-08-30T07:22:21.630Z,101640.81
2022-08-30T07:24:24.658Z,101645.50
2022-08-30T07:26:28.641Z,101654.03
2022-08-30T07:28:31.992Z,101656.16
2022-08-30T07:30:34.168Z,101656.16
2022-08-30T07:32:35.690Z,101655.09
2022-08-30T07:34:37.186Z,101660.81
2022-08-30T07:36:39.341Z,101651.84
2022-08-30T07:38:41.257Z,101659.88
2022-08-30T07:40:44.346Z,101660.16
2022-08-30T07:42:45.948Z,101659.53
2022-08-30T07:44:47.615Z,101662.13
2022-08-30T07:46:49.235Z,101669.81
2022-08-30T07:48:51.073Z,101665.16
2022-08-30T07:50:56.389Z,101679.53
2022-08-30T07:52:59.980Z,101672.41
2022-08-30T07:55:01.535Z,101678.66
2022-08-30T07:57:04.769Z,101668.94
2022-08-30T07:59:06.300Z,101667.13
2022-08-30T08:01:10.033Z,101675.41
2022-08-30T08:03:11.572Z,101668.56
2022-08-30T08:05:17.026Z,101662.94
2022-08-30T08:07:19.911Z,101665.16
2022-08-30T08:09:21.365Z,101665.66
2022-08-30T08:11:24.704Z,101671.13
2022-08-30T08:13:28.635Z,101671.00
2022-08-30T08:15:34.447Z,101668.03
2022-08-30T08:17:35.982Z,101673.69
2022-08-30T08:19:37.556Z,101674.59
2022-08-30T08:21:39.123Z,101673.81
2022-08-30T08:23:40.643Z,101669.78
2022-08-30T08:25:42.429Z,101664.97
2022-08-30T08:27:47.041Z,101674.31
2022-08-30T08:29:49.906Z,101688.56
2022-08-30T08:31:51.437Z,101680.41
2022-08-30T08:33:52.964Z,101686.06
2022-08-30T08:35:54.497Z,101681.88
2022-08-30T08:37:56.077Z,101689.75
2022-08-30T08:39:57.738Z,101685.56
2022-08-30T08:42:07.301Z,101683.81
2022-08-30T08:44:16.534Z,101689.97
2022-08-30T08:46:27.056Z,101694.16
2022-08-30T08:48:58.180Z,101695.88
2022-08-30T08:50:58.404Z,101690.56
2022-08-30T08:53:07.881Z,101687.41
2022-08-30T08:55:12.498Z,101688.00
2022-08-30T08:57:16.515Z,101696.72
2022-08-30T08:59:18.891Z,101696.09
2022-08-30T09:01:23.769Z,101696.59
2022-08-30T09:03:28.563Z,101697.84
2022-08-30T09:05:36.589Z,101693.94
2022-08-30T09:07:42.332Z,101691.84
2022-08-30T09:09:44.153Z,101697.91
2022-08-30T09:11:47.464Z,101693.50
2022-08-30T09:13:49.079Z,101697.06
2022-08-30T09:15:56.211Z,101698.78
2022-08-30T09:18:01.274Z,101697.94
2022-08-30T09:20:05.509Z,101690.53
2022-08-30T09:22:21.461Z,101695.25
2022-08-30T09:24:26.062Z,101700.03
2022-08-30T09:26:30.349Z,101700.13
2022-08-30T09:28:33.810Z,101701.03
2022-08-30T09:30:36.316Z,101700.91
2022-08-30T09:32:43.059Z,101692.03
2022-08-30T09:34:45.942Z,101699.41
2022-08-30T09:36:48.938Z,101701.38
2022-08-30T09:38:59.279Z,101703.84
2022-08-30T09:41:21.921Z,101695.72
2022-08-30T09:43:25.669Z,101692.28
2022-08-30T09:45:31.374Z,101697.44
2022-08-30T09:47:33.458Z,101697.69
2022-08-30T09:49:37.651Z,101694.72
2022-08-30T09:51:52.642Z,101696.72
2022-08-30T09:54:17.093Z,101696.19
2022-08-30T09:56:30.955Z,101692.03
2022-08-30T09:58:46.808Z,101701.75
2022-08-30T10:00:56.603Z,101697.06
2022-08-30T10:03:26.135Z,101704.84
2022-08-30T10:05:49.136Z,101700.66
2022-08-30T10:08:06.197Z,101702.22
2022-08-30T10:10:16.045Z,101700.88
2022-08-30T10:12:22.790Z,101701.59
2022-08-30T10:14:36.043Z,101699.75
2022-08-30T10:16:48.351Z,101695.72
2022-08-30T10:19:06.285Z,101690.66
2022-08-30T10:21:19.068Z,101694.63
2022-08-30T10:23:26.640Z,101703.97
2022-08-30T10:25:33.628Z,101702.63
2022-08-30T10:27:41.434Z,101697.44
2022-08-30T10:29:49.248Z,101694.63
2022-08-30T10:31:56.460Z,101698.69
2022-08-30T10:34:05.408Z,101697.94
2022-08-30T10:36:11.456Z,101704.56
2022-08-30T10:38:19.802Z,101702.69
2022-08-30T10:40:26.970Z,101699.28
2022-08-30T10:42:36.775Z,101690.81
2022-08-30T10:44:45.281Z,101692.66
2022-08-30T10:46:58.526Z,101682.34
2022-08-30T10:49:02.718Z,101683.59
2022-08-30T10:51:09.908Z,101688.69
2022-08-30T10:53:15.724Z,101683.03
2022-08-30T10:55:21.095Z,101687.81
2022-08-30T10:57:24.564Z,101684.34
2022-08-30T10:59:28.716Z,101685.63
2022-08-30T11:01:46.681Z,101682.13
2022-08-30T11:04:35.903Z,101683.31
2022-08-30T11:06:42.665Z,101683.28
2022-08-30T11:09:15.897Z,101671.44
2022-08-30T11:11:27.527Z,101679.50
2022-08-30T11:13:35.232Z,101681.16
2022-08-30T11:15:53.577Z,101675.84
2022-08-30T11:17:58.513Z,101678.72
2022-08-30T11:20:05.342Z,101674.94
2022-08-30T11:22:13.729Z,101680.50
2022-08-30T11:24:17.765Z,101683.94
2022-08-30T11:26:52.670Z,101679.25
2022-08-30T11:29:07.043Z,101679.72
2022-08-30T11:31:10.729Z,101668.41
2022-08-30T11:33:30.220Z,101668.88
2022-08-30T11:35:37.733Z,101662.50
2022-08-30T11:37:42.720Z,101663.97
2022-08-30T11:40:13.338Z,101662.84
2022-08-30T11:42:30.679Z,101649.66
2022-08-30T11:44:33.950Z,101650.00
2022-08-30T11:46:41.290Z,101651.06
2022-08-30T11:48:54.501Z,101644.75
2022-08-30T11:51:03.549Z,101640.81
2022-08-30T11:53:15.696Z,101640.97
2022-08-30T11:55:34.128Z,101645.69
2022-08-30T11:57:44.294Z,101645.34
2022-08-30T12:00:02.093Z,101639.31
2022-08-30T12:02:04.725Z,101640.19
2022-08-30T12:04:15.237Z,101637.38
2022-08-30T12:06:45.705Z,101632.41
2022-08-30T12:08:51.018Z,101630.25
2022-08-30T12:11:08.157Z,101634.25
2022-08-30T12:13:30.318Z,101623.97
2022-08-30T12:15:59.156Z,101629.34
2022-08-30T12:18:02.659Z,101630.94
2022-08-30T12:20:11.590Z,101622.34
2022-08-30T12:22:17.110Z,101625.47
2022-08-30T12:24:25.051Z,101618.75
2022-08-30T12:26:33.297Z,101617.31
2022-08-30T12:28:34.831Z,101621.00
2022-08-30T12:30:36.516Z,101622.75
2022-08-30T12:32:44.370Z,101616.72
2022-08-30T12:34:53.612Z,101614.00
2022-08-30T12:36:58.715Z,101612.44
2022-08-30T12:39:14.067Z,101614.00
2022-08-30T12:41:19.616Z,101597.44
2022-08-30T12:43:28.468Z,101602.75
2022-08-30T12:45:50.847Z,101598.88
2022-08-30T12:47:57.521Z,101598.31
2022-08-30T12:50:00.889Z,101602.91
2022-08-30T12:52:18.662Z,101605.34
2022-08-30T12:54:24.006Z,101604.19
2022-08-30T12:56:50.219Z,101612.03
2022-08-30T12:58:52.461Z,101599.44
2022-08-30T13:01:12.614Z,101600.16
2022-08-30T13:03:30.087Z,101597.44
2022-08-30T13:05:52.749Z,101594.31
2022-08-30T13:08:08.943Z,101590.44
2022-08-30T13:10:19.467Z,101591.16
2022-08-30T13:12:23.838Z,101585.19
2022-08-30T13:14:35.859Z,101580.59
2022-08-30T13:16:41.245Z,101582.75
2022-08-30T13:18:47.818Z,101575.84
2022-08-30T13:20:50.994Z,101578.28
2022-08-30T13:23:06.088Z,101580.28
2022-08-30T13:25:10.832Z,101575.53
2022-08-30T13:27:12.394Z,101575.38
2022-08-30T13:29:16.485Z,101577.44
2022-08-30T13:31:18.375Z,101584.28
2022-08-30T13:33:19.929Z,101571.72
2022-08-30T13:35:21.735Z,101575.44
2022-08-30T13:39:47.815Z,101579.69
2022-08-30T13:41:49.747Z,101581.38
2022-08-30T13:46:16.185Z,101568.44
2022-08-30T13:48:24.755Z,101568.44
2022-08-30T13:50:26.827Z,101565.88
2022-08-30T13:52:30.063Z,101565.16
2022-08-30T13:54:31.622Z,101562.88
2022-08-30T13:56:33.173Z,101562.44
2022-08-30T13:58:36.083Z,101553.13
2022-08-30T14:00:41.177Z,101541.41
2022-08-30T14:02:46.478Z,101559.41
2022-08-30T14:04:49.323Z,101555.97
2022-08-30T14:09:13.793Z,101564.53
2022-08-30T14:11:20.944Z,101566.59
2022-08-30T14:13:25.898Z,101564.41
2022-08-30T14:15:30.727Z,101562.84
2022-08-30T14:17:32.261Z,101569.88
2022-08-30T14:19:34.024Z,101565.44
2022-08-30T14:21:36.262Z,101568.59
2022-08-30T14:23:37.755Z,101570.75
2022-08-30T14:25:41.144Z,101568.88
2022-08-30T14:27:42.729Z,101571.88
2022-08-30T14:29:44.293Z,101564.84
2022-08-30T14:31:45.838Z,101566.44
2022-08-30T14:33:48.925Z,101564.31
2022-08-30T14:35:50.559Z,101570.72
2022-08-30T14:37:52.116Z,101580.19
2022-08-30T14:39:53.631Z,101571.50
2022-08-30T14:41:56.706Z,101571.38
2022-08-30T14:43:58.325Z,101569.94
2022-08-30T14:46:00.685Z,101579.75
2022-08-30T14:48:02.741Z,101586.19
2022-08-30T14:50:11.264Z,101578.38
2022-08-30T14:52:13.953Z,101583.88
2022-08-30T14:54:16.824Z,101576.84
2022-08-30T14:56:20.203Z,101591.34
2022-08-30T14:58:23.116Z,101580.78
2022-08-30T15:00:25.191Z,101581.19
2022-08-30T15:02:27.292Z,101578.00
2022-08-30T15:04:29.032Z,101577.78
2022-08-30T15:06:30.886Z,101581.38
2022-08-30T15:08:32.778Z,101574.56
2022-08-30T15:10:34.586Z,101577.09
2022-08-30T15:12:39.320Z,101583.63
2022-08-30T15:14:42.601Z,101581.66
2022-08-30T15:16:44.549Z,101579.59
2022-08-30T15:18:46.544Z,101573.84
2022-08-30T15:20:49.455Z,101585.56
2022-08-30T15:22:51.190Z,101585.56
2022-08-30T15:24:53.897Z,101584.44
2022-08-30T15:26:57.549Z,101588.66
2022-08-30T15:29:01.042Z,101590.06
2022-08-30T15:31:08.725Z,101586.03
2022-08-30T15:33:10.862Z,101592.34
2022-08-30T15:35:12.440Z,101590.38
2022-08-30T15:37:13.914Z,101593.03
2022-08-30T15:39:16.404Z,101581.94
2022-08-30T15:41:17.908Z,101578.75
2022-08-30T15:43:19.579Z,101582.13
2022-08-30T15:45:21.292Z,101580.56
2022-08-30T15:47:27.117Z,101578.75
2022-08-30T15:49:28.718Z,101577.69
2022-08-30T15:51:41.597Z,101578.19
2022-08-30T15:53:45.045Z,101576.69
2022-08-30T15:55:46.622Z,101572.53
2022-08-30T15:57:52.450Z,101578.44
2022-08-30T15:59:54.102Z,101572.91
2022-08-30T16:01:55.792Z,101578.69
2022-08-30T16:04:03.994Z,101563.03
2022-08-30T16:06:10.739Z,101570.03
2022-08-30T16:08:12.312Z,101566.78
2022-08-30T16:10:14.324Z,101566.34
2022-08-30T16:12:23.368Z,101564.63
2022-08-30T16:14:25.616Z,101565.50
2022-08-30T16:16:27.447Z,101560.09
2022-08-30T16:18:29.300Z,101566.13
2022-08-30T16:20:32.469Z,101566.63
2022-08-30T16:22:34.474Z,101567.66
2022-08-30T16:24:36.143Z,101566.94
2022-08-30T16:26:37.958Z,101562.44
2022-08-30T16:28:40.261Z,101562.44
2022-08-30T16:30:42.137Z,101559.84
2022-08-30T16:32:47.104Z,101569.25
2022-08-30T16:34:49.818Z,101550.03
2022-08-30T16:36:52.812Z,101566.28
2022-08-30T16:38:58.158Z,101559.41
2022-08-30T16:41:04.776Z,101559.66
2022-08-30T16:43:07.130Z,101557.00
2022-08-30T16:45:10.775Z,101559.72
2022-08-30T16:47:13.530Z,101563.19
2022-08-30T16:49:15.894Z,101560.50
2022-08-30T16:51:22.861Z,101568.09
2022-08-30T16:53:27.246Z,101553.84
2022-08-30T16:55:29.641Z,101560.97
2022-08-30T16:57:31.458Z,101556.53
2022-08-30T16:59:33.421Z,101552.25
2022-08-30T17:01:36.988Z,101552.13
2022-08-30T17:03:40.470Z,101556.28
2022-08-30T17:05:42.022Z,101555.56
2022-08-30T17:07:44.839Z,101545.97
2022-08-30T17:09:47.982Z,101561.47
2022-08-30T17:11:50.017Z,101560.59
2022-08-30T17:13:52.062Z,101546.97
2022-08-30T17:15:53.620Z,101563.19
2022-08-30T17:17:58.075Z,101561.81
2022-08-30T17:19:59.792Z,101562.44
2022-08-30T17:22:01.467Z,101564.41
2022-08-30T17:24:03.868Z,101562.69
2022-08-30T17:26:06.840Z,101571.31
2022-08-30T17:28:11.081Z,101569.59
2022-08-30T17:30:12.819Z,101577.44
2022-08-30T17:32:24.961Z,101570.06
2022-08-30T17:34:27.225Z,101570.31
2022-08-30T17:38:54.919Z,101584.72
2022-08-30T17:41:01.808Z,101587.31
2022-08-30T17:43:05.015Z,101599.81
2022-08-30T17:45:11.237Z,101586.06
2022-08-30T17:47:12.773Z,101590.00
2022-08-30T17:49:15.142Z,101584.31
2022-08-30T17:51:16.881Z,101595.00
2022-08-30T17:53:18.450Z,101591.94
2022-08-30T17:55:20.252Z,101585.78
2022-08-30T17:57:21.795Z,101590.22
2022-08-30T17:59:26.698Z,101592.31
2022-08-30T18:01:34.085Z,101598.44
2022-08-30T18:03:35.948Z,101592.94
2022-08-30T18:05:38.513Z,101590.59
2022-08-30T18:07:44.243Z,101606.44
2022-08-30T18:09:45.794Z,101605.22
2022-08-30T18:11:52.494Z,101607.66
2022-08-30T18:13:58.194Z,101617.00
2022-08-30T18:16:01.576Z,101610.47
2022-08-30T18:18:04.201Z,101618.84
2022-08-30T18:20:07.336Z,101622.13
2022-08-30T18:22:09.211Z,101621.91
2022-08-30T18:24:11.289Z,101628.28
2022-08-30T18:26:14.590Z,101625.47
2022-08-30T18:28:19.151Z,101629.50
2022-08-30T18:30:20.937Z,101630.22
2022-08-30T18:32:32.803Z,101629.75
2022-08-30T18:34:40.002Z,101638.81
2022-08-30T18:36:44.113Z,101639.75
2022-08-30T18:38:45.840Z,101651.72
2022-08-30T18:40:48.542Z,101643.44
2022-08-30T18:42:50.189Z,101648.63
2022-08-30T18:44:52.667Z,101653.03
2022-08-30T18:46:56.736Z,101652.50
2022-08-30T18:49:00.119Z,101649.81
2022-08-30T18:51:02.207Z,101655.84
2022-08-30T18:53:03.811Z,101652.50
2022-08-30T18:55:06.186Z,101649.66
2022-08-30T18:57:08.281Z,101642.88
2022-08-30T18:59:11.763Z,101644.38
2022-08-30T19:01:20.706Z,101645.47
2022-08-30T19:03:24.230Z,101642.22
2022-08-30T19:05:27.243Z,101643.56
2022-08-30T19:07:36.852Z,101644.53
2022-08-30T19:09:39.154Z,101646.31
2022-08-30T19:11:41.033Z,101648.16
2022-08-30T19:13:42.529Z,101643.22
2022-08-30T19:15:44.799Z,101633.00
2022-08-30T19:17:46.638Z,101630.66
2022-08-30T19:19:49.207Z,101631.63
2022-08-30T19:21:55.454Z,101640.94
2022-08-30T19:23:57.545Z,101646.56
2022-08-30T19:25:59.457Z,101644.22
2022-08-30T19:28:03.492Z,101634.31
2022-08-30T19:30:09.944Z,101645.34
2022-08-30T19:32:11.548Z,101644.00
2022-08-30T19:34:14.850Z,101647.47
2022-08-30T19:36:16.450Z,101640.59
2022-08-30T19:38:20.366Z,101642.97
2022-08-30T19:40:22.389Z,101640.50
2022-08-30T19:42:23.976Z,101646.56
2022-08-30T19:44:25.548Z,101641.16
2022-08-30T19:46:27.198Z,101652.38
2022-08-30T19:50:51.891Z,101644.97
2022-08-30T19:52:57.171Z,101649.28
2022-08-30T19:55:01.285Z,101650.78
2022-08-30T19:57:05.791Z,101630.53
2022-08-30T19:59:07.572Z,101649.94
2022-08-30T20:01:12.163Z,101661.66
2022-08-30T20:03:27.129Z,101659.72
2022-08-30T20:05:29.737Z,101651.00
2022-08-30T20:07:32.071Z,101656.81
2022-08-30T20:09:36.825Z,101662.88
2022-08-30T20:11:40.578Z,101646.34
2022-08-30T20:13:42.270Z,101668.69
2022-08-30T20:15:43.870Z,101643.22
2022-08-30T20:18:03.314Z,101659.38
2022-08-30T20:20:09.115Z,101653.13
2022-08-30T20:22:15.170Z,101657.66
2022-08-30T20:24:17.226Z,101658.78
2022-08-30T20:24:23.823Z,101576.84
2022-08-30T20:26:18.821Z,101664.53
2022-08-30T20:28:26.661Z,101665.63
2022-08-30T20:30:29.156Z,101661.00
2022-08-30T20:32:31.344Z,101667.72
2022-08-30T20:34:32.895Z,101675.28
2022-08-30T20:36:34.847Z,101662.13
2022-08-30T20:38:36.511Z,101671.16
2022-08-30T20:40:39.628Z,101669.34
2022-08-30T20:42:41.665Z,101664.69
2022-08-30T20:44:45.017Z,101671.16
2022-08-30T20:46:47.791Z,101673.41
2022-08-30T20:48:49.294Z,101674.28
2022-08-30T20:50:50.811Z,101678.91
2022-08-30T20:52:52.354Z,101674.59
2022-08-30T20:54:54.577Z,101679.97
2022-08-30T20:56:56.332Z,101667.47
2022-08-30T20:59:07.010Z,101672.88
2022-08-30T21:01:11.436Z,101680.94
2022-08-30T21:03:25.925Z,101680.72
2022-08-30T21:05:28.814Z,101689.44
2022-08-30T21:07:30.777Z,101684.66
2022-08-30T21:09:32.353Z,101689.09
2022-08-30T21:11:35.129Z,101695.44
2022-08-30T21:13:37.061Z,101689.28
2022-08-30T21:15:38.860Z,101689.16
2022-08-30T21:17:43.127Z,101698.19
2022-08-30T21:19:45.032Z,101697.69
2022-08-30T21:21:46.909Z,101690.00
2022-08-30T21:23:49.036Z,101689.16
2022-08-30T21:25:50.723Z,101690.09
2022-08-30T21:27:52.235Z,101683.88
2022-08-30T21:29:53.771Z,101685.16
2022-08-30T21:31:55.647Z,101685.91
2022-08-30T21:33:59.469Z,101691.91
2022-08-30T21:36:00.987Z,101696.09
2022-08-30T21:38:02.710Z,101704.94
2022-08-30T21:40:05.145Z,101702.84
2022-08-30T21:42:06.767Z,101709.41
2022-08-30T21:44:10.488Z,101706.03
2022-08-30T21:46:12.089Z,101708.72
2022-08-30T21:48:13.984Z,101705.47
2022-08-30T21:50:17.254Z,101694.91
2022-08-30T21:52:18.819Z,101692.13
2022-08-30T21:54:21.401Z,101704.97
2022-08-30T21:56:23.343Z,101695.28
2022-08-30T21:58:24.876Z,101702.88
2022-08-30T22:00:26.615Z,101701.81
2022-08-30T22:02:28.381Z,101704.09
2022-08-30T22:04:30.245Z,101701.50
2022-08-30T22:06:38.750Z,101684.44
2022-08-30T22:08:40.948Z,101706.69
2022-08-30T22:10:43.797Z,101709.03
2022-08-30T22:12:45.354Z,101709.78
2022-08-30T22:14:46.900Z,101709.78
2022-08-30T22:16:49.126Z,101713.81
2022-08-30T22:18:51.447Z,101716.91
2022-08-30T22:20:53.137Z,101705.75
2022-08-30T22:22:56.419Z,101711.31
2022-08-30T22:24:57.961Z,101712.69
2022-08-30T22:27:01.794Z,101708.63
2022-08-30T22:29:04.588Z,101704.41
2022-08-30T22:31:09.071Z,101707.84
2022-08-30T22:33:10.791Z,101708.63
2022-08-30T22:35:12.403Z,101708.53
2022-08-30T22:37:13.905Z,101706.69
2022-08-30T22:39:16.949Z,101696.53
2022-08-30T22:41:20.097Z,101705.66
2022-08-30T22:43:27.862Z,101704.22
2022-08-30T22:45:30.128Z,101702.50
2022-08-30T22:47:32.097Z,101695.38
2022-08-30T22:49:33.683Z,101702.69
2022-08-30T22:51:35.965Z,101702.38
2022-08-30T22:53:37.942Z,101708.03
2022-08-30T22:55:43.654Z,101712.75
2022-08-30T22:57:45.407Z,101709.38
2022-08-30T22:59:46.964Z,101707.16
2022-08-30T23:01:49.003Z,101711.69
2022-08-30T23:03:51.741Z,101709.94
2022-08-30T23:05:54.717Z,101713.78
2022-08-30T23:07:56.342Z,101716.47
2022-08-30T23:09:58.146Z,101718.28
2022-08-30T23:12:01.129Z,101721.34
2022-08-30T23:14:04.053Z,101717.91
2022-08-30T23:16:07.975Z,101728.75
2022-08-30T23:18:10.072Z,101725.97
2022-08-30T23:20:12.279Z,101723.56
2022-08-30T23:22:14.991Z,101718.56
2022-08-30T23:24:16.490Z,101711.63
2022-08-30T23:26:18.294Z,101712.78
2022-08-30T23:28:21.436Z,101720.84
2022-08-30T23:30:30.726Z,101727.94
2022-08-30T23:32:32.732Z,101727.44
2022-08-30T23:34:34.590Z,101726.03
2022-08-30T23:36:36.160Z,101731.56
2022-08-30T23:38:38.123Z,101725.53
2022-08-30T23:40:42.460Z,101721.69
2022-08-30T23:42:44.317Z,101731.75
2022-08-30T23:44:47.133Z,101725.72
2022-08-30T23:46:48.956Z,101726.50
2022-08-30T23:48:52.349Z,101721.22